Nf67 Femarnbaelt II — OU3102 — position and weather

sailwx.info

Track history (hours):
 
Tides and Currents Weather Stations Pressure Air Temp Water Temp Dewpoint Dewpoint Depression Visibility Wind Speed Wind Dir Waves Ship Positions

Nf67 Femarnbaelt II

Last reported at 2017-Aug-23 20:56 UTC. Time now 2017-Aug-24 04:40 UTC.
Position N 57°39' E 009°58'.

Length 15 m.

Type: Fishing. MMSI: 219012459.

Date/timePositionNaut miles runAvg speedWind from/ knotsBaromVisibWave heightAir tempDewpointWater temp
2017-Aug-23 20:56N 57°39' E 009°58'4 0.2
2017-Aug-22 22:46N 57°36' E 009°57'0 0.8
2017-Aug-22 22:30N 57°36' E 009°58'0 0.1
2017-Aug-22 21:58N 57°36' E 009°58'1 1.6
2017-Aug-22 21:30N 57°36' E 009°58'1 2.8
2017-Aug-22 21:00N 57°38' E 009°57'1 2.4
2017-Aug-22 20:29N 57°39' E 009°58'3 6.5
2017-Aug-22 19:59N 57°42' E 009°58'  
2017-Aug-20 02:06N 57°36' E 009°58'0 0.0
2017-Aug-20 02:00N 57°36' E 009°58'0 0.0
2017-Aug-20 01:30N 57°36' E 009°57'0 0.0
2017-Aug-20 01:00N 57°36' E 009°57'0 0.0
2017-Aug-20 00:27N 57°36' E 009°58'  
2017-Aug-17 07:39N 57°36' E 009°57'0 0.0
2017-Aug-17 07:30N 57°36' E 009°57'0 0.0
2017-Aug-17 06:57N 57°36' E 009°57'0 0.0
2017-Aug-17 06:30N 57°36' E 009°57'0 0.0
2017-Aug-17 05:57N 57°36' E 009°57'0 0.0
2017-Aug-16 16:32N 57°36' E 009°58'0 0.0
2017-Aug-16 16:29N 57°36' E 009°57'0 0.0
2017-Aug-16 15:56N 57°36' E 009°58'0 0.0
2017-Aug-16 15:26N 57°36' E 009°58'0 0.0
2017-Aug-16 14:59N 57°36' E 009°58'  
2017-Aug-13 21:15N 57°36' E 009°57'0 0.0
2017-Aug-13 21:00N 57°36' E 009°58'  
Track history (hours):
 
Tides and Currents Weather Stations Pressure Air Temp Water Temp Dewpoint Dewpoint Depression Visibility Wind Speed Wind Dir Waves Ship Positions

Nf67 Femarnbaelt II

Last reported at 2017-Aug-23 20:56 UTC. Time now 2017-Aug-24 04:40 UTC.
Position N 57°39' E 009°58'.

Length 15 m.

Type: Fishing. MMSI: 219012459.

Date/timePositionNaut miles runAvg speedWind from/ knotsBaromVisibWave heightAir tempDewpointWater temp
2017-Aug-23 20:56N 57°39' E 009°58'4 0.2
2017-Aug-22 22:46N 57°36' E 009°57'0 0.8
2017-Aug-22 22:30N 57°36' E 009°58'0 0.1
2017-Aug-22 21:58N 57°36' E 009°58'1 1.6
2017-Aug-22 21:30N 57°36' E 009°58'1 2.8
2017-Aug-22 21:00N 57°38' E 009°57'1 2.4
2017-Aug-22 20:29N 57°39' E 009°58'3 6.5
2017-Aug-22 19:59N 57°42' E 009°58'  
2017-Aug-20 02:06N 57°36' E 009°58'0 0.0
2017-Aug-20 02:00N 57°36' E 009°58'0 0.0
2017-Aug-20 01:30N 57°36' E 009°57'0 0.0
2017-Aug-20 01:00N 57°36' E 009°57'0 0.0
2017-Aug-20 00:27N 57°36' E 009°58'  
2017-Aug-17 07:39N 57°36' E 009°57'0 0.0
2017-Aug-17 07:30N 57°36' E 009°57'0 0.0
2017-Aug-17 06:57N 57°36' E 009°57'0 0.0
2017-Aug-17 06:30N 57°36' E 009°57'0 0.0
2017-Aug-17 05:57N 57°36' E 009°57'0 0.0
2017-Aug-16 16:32N 57°36' E 009°58'0 0.0
2017-Aug-16 16:29N 57°36' E 009°57'0 0.0
2017-Aug-16 15:56N 57°36' E 009°58'0 0.0
2017-Aug-16 15:26N 57°36' E 009°58'0 0.0
2017-Aug-16 14:59N 57°36' E 009°58'  
2017-Aug-13 21:15N 57°36' E 009°57'0 0.0
2017-Aug-13 21:00N 57°36' E 009°58'  

Dump ship's entire track history